createdAt,value
2019-02-14T00:02:04.962Z,21.17
2019-02-14T00:04:35.257Z,21.15
2019-02-14T00:07:05.502Z,21.13
2019-02-14T00:09:35.779Z,21.12
2019-02-14T00:12:06.026Z,21.13
2019-02-14T00:14:36.284Z,21.14
2019-02-14T00:17:06.498Z,21.10
2019-02-14T00:19:36.973Z,21.10
2019-02-14T00:22:07.339Z,21.09
2019-02-14T00:24:37.724Z,21.09
2019-02-14T00:27:08.026Z,21.08
2019-02-14T00:29:39.464Z,21.07
2019-02-14T00:32:09.695Z,21.07
2019-02-14T00:34:39.938Z,21.05
2019-02-14T00:37:10.280Z,21.07
2019-02-14T00:39:40.652Z,21.04
2019-02-14T00:42:10.959Z,21.05
2019-02-14T00:44:41.267Z,21.05
2019-02-14T00:47:11.694Z,21.02
2019-02-14T00:49:41.973Z,21.02
2019-02-14T00:52:12.241Z,21.00
2019-02-14T00:54:42.580Z,21.01
2019-02-14T00:57:12.806Z,21.01
2019-02-14T00:59:43.002Z,21.00
2019-02-14T01:02:13.366Z,20.98
2019-02-14T01:04:43.691Z,20.96
2019-02-14T01:07:13.934Z,20.98
2019-02-14T01:09:44.209Z,20.97
2019-02-14T01:12:14.517Z,20.97
2019-02-14T01:14:45.956Z,20.96
2019-02-14T01:17:16.222Z,20.98
2019-02-14T01:19:46.490Z,20.97
2019-02-14T01:22:16.981Z,20.95
2019-02-14T01:24:47.320Z,20.94
2019-02-14T01:27:17.649Z,20.96
2019-02-14T01:29:47.932Z,20.93
2019-02-14T01:32:21.342Z,20.93
2019-02-14T01:34:51.660Z,20.92
2019-02-14T01:37:24.432Z,20.93
2019-02-14T01:39:54.732Z,20.91
2019-02-14T01:42:25.039Z,20.91
2019-02-14T01:44:55.669Z,20.92
2019-02-14T01:47:26.376Z,20.91
2019-02-14T01:49:56.581Z,20.91
2019-02-14T01:52:26.910Z,20.90
2019-02-14T01:54:57.233Z,20.91
2019-02-14T01:57:29.113Z,20.90
2019-02-14T01:59:59.463Z,20.91
2019-02-14T02:02:29.791Z,20.91
2019-02-14T02:05:01.130Z,20.89
2019-02-14T02:07:31.490Z,20.87
2019-02-14T02:10:01.831Z,20.85
2019-02-14T02:12:32.432Z,20.84
2019-02-14T02:15:02.860Z,20.84
2019-02-14T02:17:33.222Z,20.84
2019-02-14T02:20:03.568Z,20.83
2019-02-14T02:22:33.930Z,20.82
2019-02-14T02:25:04.986Z,20.83
2019-02-14T02:27:35.371Z,20.82
2019-02-14T02:30:06.548Z,20.81
2019-02-14T02:32:39.838Z,20.83
2019-02-14T02:35:10.115Z,20.82
2019-02-14T02:37:40.587Z,20.83
2019-02-14T02:40:10.922Z,20.84
2019-02-14T02:42:41.320Z,20.83
2019-02-14T02:45:12.810Z,20.80
2019-02-14T02:47:43.165Z,20.81
2019-02-14T02:50:13.595Z,20.81
2019-02-14T02:52:44.000Z,20.81
2019-02-14T02:55:14.321Z,20.80
2019-02-14T02:57:44.796Z,20.81
2019-02-14T03:00:16.725Z,20.80
2019-02-14T03:02:47.995Z,20.84
2019-02-14T03:05:18.293Z,20.87
2019-02-14T03:07:51.686Z,20.87
2019-02-14T03:10:22.009Z,20.83
2019-02-14T03:12:52.437Z,20.84
2019-02-14T03:15:22.761Z,20.86
2019-02-14T03:17:53.037Z,20.86
2019-02-14T03:20:23.461Z,20.83
2019-02-14T03:22:54.089Z,20.85
2019-02-14T03:25:24.362Z,20.84
2019-02-14T03:27:56.509Z,20.83
2019-02-14T03:30:26.927Z,20.81
2019-02-14T03:32:57.314Z,20.81
2019-02-14T03:35:27.776Z,20.81
2019-02-14T03:37:58.115Z,20.79
2019-02-14T03:40:28.896Z,20.79
2019-02-14T03:43:06.733Z,20.79
2019-02-14T03:45:37.119Z,20.80
2019-02-14T03:48:07.463Z,20.79
2019-02-14T03:50:37.804Z,20.79
2019-02-14T03:53:08.205Z,20.78
2019-02-14T03:55:38.566Z,20.78
2019-02-14T03:58:09.272Z,20.76
2019-02-14T04:00:39.584Z,20.77
2019-02-14T04:03:09.923Z,20.78
2019-02-14T04:05:40.184Z,20.77
2019-02-14T04:08:10.468Z,20.76
2019-02-14T04:10:40.747Z,20.78
2019-02-14T04:13:11.057Z,20.79
2019-02-14T04:15:44.286Z,20.81
2019-02-14T04:18:15.388Z,20.82
2019-02-14T04:20:45.798Z,20.80
2019-02-14T04:23:17.924Z,20.80
2019-02-14T04:25:48.188Z,20.81
2019-02-14T04:28:18.629Z,20.80
2019-02-14T04:30:50.348Z,20.79
2019-02-14T04:33:21.012Z,20.82
2019-02-14T04:35:51.666Z,20.84
2019-02-14T04:38:22.186Z,20.84
2019-02-14T04:40:52.677Z,20.85
2019-02-14T04:43:23.006Z,20.84
2019-02-14T04:45:53.365Z,20.84
2019-02-14T04:48:23.802Z,20.83
2019-02-14T04:50:54.059Z,20.79
2019-02-14T04:53:24.440Z,20.82
2019-02-14T04:55:54.664Z,20.82
2019-02-14T04:58:25.066Z,20.78
2019-02-14T05:00:55.923Z,20.79
2019-02-14T05:03:26.201Z,20.78
2019-02-14T05:05:56.574Z,20.80
2019-02-14T05:08:26.865Z,20.79
2019-02-14T05:10:57.095Z,20.78
2019-02-14T05:13:27.441Z,20.79
2019-02-14T05:15:57.731Z,20.77
2019-02-14T05:18:28.113Z,20.77
2019-02-14T05:20:58.467Z,20.78
2019-02-14T05:23:28.916Z,20.79
2019-02-14T05:25:59.197Z,20.78
2019-02-14T05:28:29.583Z,20.75
2019-02-14T05:30:59.831Z,20.77
2019-02-14T05:33:30.692Z,20.78
2019-02-14T05:36:00.972Z,20.78
2019-02-14T05:38:31.327Z,20.78
2019-02-14T05:41:01.628Z,20.80
2019-02-14T05:43:32.119Z,20.81
2019-02-14T05:46:02.421Z,20.82
2019-02-14T05:48:32.810Z,20.80
2019-02-14T05:51:05.558Z,20.81
2019-02-14T05:53:35.953Z,20.82
2019-02-14T05:56:06.268Z,20.81
2019-02-14T05:58:38.870Z,20.81
2019-02-14T06:01:10.898Z,20.81
2019-02-14T06:03:41.235Z,20.83
2019-02-14T06:06:11.608Z,20.84
2019-02-14T06:08:41.931Z,20.84
2019-02-14T06:11:12.310Z,20.87
2019-02-14T06:13:42.608Z,20.86
2019-02-14T06:16:12.901Z,20.83
2019-02-14T06:18:43.310Z,20.84
2019-02-14T06:21:13.587Z,20.87
2019-02-14T06:23:43.893Z,20.87
2019-02-14T06:26:14.193Z,20.88
2019-02-14T06:28:44.783Z,20.87
2019-02-14T06:31:15.081Z,20.90
2019-02-14T06:33:45.784Z,20.91
2019-02-14T06:36:16.059Z,20.93
2019-02-14T06:38:48.443Z,20.94
2019-02-14T06:41:18.717Z,20.95
2019-02-14T06:43:49.129Z,20.97
2019-02-14T06:46:19.409Z,20.99
2019-02-14T06:48:49.695Z,20.97
2019-02-14T06:51:20.117Z,20.99
2019-02-14T06:53:50.477Z,21.01
2019-02-14T06:56:24.517Z,21.01
2019-02-14T06:58:58.626Z,21.03
2019-02-14T07:01:28.927Z,21.04
2019-02-14T07:03:59.355Z,21.02
2019-02-14T07:06:29.680Z,21.05
2019-02-14T07:09:00.013Z,21.05
2019-02-14T07:11:34.521Z,21.05
2019-02-14T07:14:05.152Z,21.04
2019-02-14T07:16:35.550Z,21.05
2019-02-14T07:19:05.861Z,21.08
2019-02-14T07:21:36.191Z,21.10
2019-02-14T07:24:06.502Z,21.11
2019-02-14T07:26:36.855Z,21.12
2019-02-14T07:29:08.122Z,21.13
2019-02-14T07:31:40.820Z,21.12
2019-02-14T07:34:11.128Z,21.11
2019-02-14T07:36:41.537Z,21.12
2019-02-14T07:39:12.015Z,21.12
2019-02-14T07:41:42.305Z,21.15
2019-02-14T07:44:12.734Z,21.18
2019-02-14T07:49:12.126Z,21.19
2019-02-14T07:51:42.502Z,21.16
2019-02-14T07:54:12.787Z,21.17
2019-02-14T07:59:12.074Z,21.22
2019-02-14T08:01:42.370Z,21.22
2019-02-14T08:04:12.647Z,21.20
2019-02-14T08:06:43.039Z,21.19
2019-02-14T08:09:13.377Z,21.23
2019-02-14T08:11:43.732Z,21.26
2019-02-14T08:14:14.991Z,21.28
2019-02-14T08:16:45.363Z,21.25
2019-02-14T08:19:15.797Z,21.27
2019-02-14T08:21:46.249Z,21.28
2019-02-14T08:24:16.527Z,21.28
2019-02-14T08:26:46.916Z,21.29
2019-02-14T08:29:17.318Z,21.30
2019-02-14T08:31:47.807Z,21.28
2019-02-14T08:34:18.193Z,21.28
2019-02-14T08:36:48.467Z,21.30
2019-02-14T08:39:18.844Z,21.30
2019-02-14T08:41:49.289Z,21.30
2019-02-14T08:44:19.664Z,21.32
2019-02-14T08:46:49.986Z,21.31
2019-02-14T08:49:20.259Z,21.32
2019-02-14T08:51:50.510Z,21.33
2019-02-14T08:54:20.869Z,21.32
2019-02-14T08:56:51.232Z,21.35
2019-02-14T08:59:21.481Z,21.34
2019-02-14T09:01:51.844Z,21.34
2019-02-14T09:04:22.197Z,21.35
2019-02-14T09:06:52.543Z,21.34
2019-02-14T09:09:22.750Z,21.35
2019-02-14T09:11:53.065Z,21.35
2019-02-14T09:14:23.321Z,21.35
2019-02-14T09:16:53.646Z,21.37
2019-02-14T09:19:23.934Z,21.37
2019-02-14T09:21:55.035Z,21.34
2019-02-14T09:24:26.313Z,21.34
2019-02-14T09:26:56.646Z,21.36
2019-02-14T09:29:26.912Z,21.35
2019-02-14T09:31:57.319Z,21.35
2019-02-14T09:34:27.535Z,21.36
2019-02-14T09:36:57.841Z,21.34
2019-02-14T09:39:28.108Z,21.32
2019-02-14T09:41:59.257Z,21.35
2019-02-14T09:44:29.577Z,21.33
2019-02-14T09:46:59.831Z,21.32
2019-02-14T09:49:30.046Z,21.32
2019-02-14T09:52:00.470Z,21.34
2019-02-14T09:54:31.102Z,21.35
2019-02-14T09:57:01.429Z,21.32
2019-02-14T09:59:31.715Z,21.34
2019-02-14T10:02:02.047Z,21.34
2019-02-14T10:04:32.647Z,21.32
2019-02-14T10:07:03.012Z,21.32
2019-02-14T10:09:33.365Z,21.32
2019-02-14T10:12:03.666Z,21.30
2019-02-14T10:14:35.842Z,21.30
2019-02-14T10:17:06.045Z,21.28
2019-02-14T10:19:36.443Z,21.28
2019-02-14T10:22:06.850Z,21.26
2019-02-14T10:24:38.749Z,21.28
2019-02-14T10:27:09.258Z,21.27
2019-02-14T10:29:39.619Z,21.27
2019-02-14T10:32:10.030Z,21.26
2019-02-14T10:34:40.352Z,21.24
2019-02-14T10:37:10.774Z,21.28
2019-02-14T10:39:41.101Z,21.28
2019-02-14T10:42:11.472Z,21.25
2019-02-14T10:44:41.771Z,21.24
2019-02-14T10:47:12.183Z,21.26
2019-02-14T10:49:42.481Z,21.26
2019-02-14T10:52:12.811Z,21.26
2019-02-14T10:54:43.202Z,21.24
2019-02-14T10:57:13.500Z,21.23
2019-02-14T10:59:44.096Z,21.25
2019-02-14T11:02:14.795Z,21.26
2019-02-14T11:04:47.036Z,21.25
2019-02-14T11:07:17.173Z,21.22
2019-02-14T11:09:47.527Z,21.23
2019-02-14T11:12:17.823Z,21.25
2019-02-14T11:14:48.249Z,21.24
2019-02-14T11:17:18.605Z,21.23
2019-02-14T11:19:49.032Z,21.24
2019-02-14T11:22:19.390Z,21.23
2019-02-14T11:24:49.747Z,21.24
2019-02-14T11:27:20.091Z,21.25
2019-02-14T11:29:52.994Z,21.24
2019-02-14T11:32:23.296Z,21.23
2019-02-14T11:34:53.762Z,21.24
2019-02-14T11:37:25.770Z,21.24
2019-02-14T11:39:56.214Z,21.25
2019-02-14T11:42:26.641Z,21.24
2019-02-14T11:44:56.966Z,21.24
2019-02-14T11:47:27.275Z,21.27
2019-02-14T11:49:57.595Z,21.27
2019-02-14T11:52:28.077Z,21.26
2019-02-14T11:54:59.443Z,21.25
2019-02-14T11:57:29.770Z,21.26
2019-02-14T12:00:00.102Z,21.25
2019-02-14T12:02:30.501Z,21.25
2019-02-14T12:05:00.816Z,21.27
2019-02-14T12:07:31.246Z,21.28
2019-02-14T12:10:02.131Z,21.29
2019-02-14T12:12:32.512Z,21.31
2019-02-14T12:15:02.868Z,21.31
2019-02-14T12:17:33.191Z,21.31
2019-02-14T12:20:03.589Z,21.32
2019-02-14T12:22:35.514Z,21.31
2019-02-14T12:25:08.640Z,21.32
2019-02-14T12:27:39.027Z,21.31
2019-02-14T12:30:11.574Z,21.32
2019-02-14T12:32:41.942Z,21.33
2019-02-14T12:35:12.272Z,21.33
2019-02-14T12:37:42.571Z,21.33
2019-02-14T12:40:13.291Z,21.33
2019-02-14T12:42:44.223Z,21.34
2019-02-14T12:45:21.625Z,21.35
2019-02-14T12:47:51.662Z,21.35
2019-02-14T12:50:21.942Z,21.37
2019-02-14T12:52:52.538Z,21.35
2019-02-14T12:55:22.913Z,21.36
2019-02-14T12:57:53.275Z,21.36
2019-02-14T13:00:24.363Z,21.36
2019-02-14T13:02:54.605Z,21.38
2019-02-14T13:05:25.209Z,21.36
2019-02-14T13:07:55.514Z,21.36
2019-02-14T13:10:26.556Z,21.36
2019-02-14T13:12:57.932Z,21.37
2019-02-14T13:15:29.031Z,21.36
2019-02-14T13:17:59.363Z,21.38
2019-02-14T13:20:29.752Z,21.37
2019-02-14T13:23:03.215Z,21.37
2019-02-14T13:25:33.562Z,21.39
2019-02-14T13:28:03.920Z,21.37
2019-02-14T13:30:35.293Z,21.37
2019-02-14T13:33:05.689Z,21.37
2019-02-14T13:35:35.957Z,21.37
2019-02-14T13:38:06.528Z,21.37
2019-02-14T13:40:37.446Z,21.36
2019-02-14T13:43:10.176Z,21.35
2019-02-14T13:45:39.671Z,21.36
2019-02-14T13:48:10.681Z,21.38
2019-02-14T13:50:42.117Z,21.37
2019-02-14T13:53:12.484Z,21.35
2019-02-14T13:55:42.802Z,21.37
2019-02-14T13:58:15.124Z,21.35
2019-02-14T14:00:45.358Z,21.33
2019-02-14T14:03:15.617Z,21.33
2019-02-14T14:05:46.348Z,21.33
2019-02-14T14:08:16.615Z,21.33
2019-02-14T14:10:47.751Z,21.34
2019-02-14T14:13:18.286Z,21.32
2019-02-14T14:15:48.661Z,21.33
2019-02-14T14:18:18.966Z,21.32
2019-02-14T14:20:49.837Z,21.31
2019-02-14T14:23:20.080Z,21.30
2019-02-14T14:25:50.493Z,21.29
2019-02-14T14:28:20.766Z,21.28
2019-02-14T14:30:51.061Z,21.29
2019-02-14T14:33:21.455Z,21.28
2019-02-14T14:35:52.093Z,21.26
2019-02-14T14:38:22.481Z,21.26
2019-02-14T14:40:55.032Z,21.25
2019-02-14T14:43:36.354Z,21.25
2019-02-14T14:46:19.924Z,21.24
2019-02-14T14:48:50.342Z,21.22
2019-02-14T14:51:20.690Z,21.20
2019-02-14T14:53:50.983Z,21.21
2019-02-14T14:56:21.421Z,21.21
2019-02-14T14:58:51.731Z,21.21
2019-02-14T15:01:21.972Z,21.21
2019-02-14T15:03:52.393Z,21.20
2019-02-14T15:06:22.750Z,21.17
2019-02-14T15:08:53.067Z,21.18
2019-02-14T15:11:23.344Z,21.15
2019-02-14T15:13:53.863Z,21.13
2019-02-14T15:16:24.235Z,21.14
2019-02-14T15:18:54.647Z,21.13
2019-02-14T15:21:24.904Z,21.11
2019-02-14T15:23:55.597Z,21.12
2019-02-14T15:26:25.969Z,21.11
2019-02-14T15:28:56.290Z,21.10
2019-02-14T15:31:26.671Z,21.09
2019-02-14T15:33:57.053Z,21.07
2019-02-14T15:36:28.283Z,21.08
2019-02-14T15:38:59.673Z,21.07
2019-02-14T15:41:31.725Z,21.06
2019-02-14T15:44:02.007Z,21.07
2019-02-14T15:46:32.312Z,21.06
2019-02-14T15:49:02.638Z,21.05
2019-02-14T15:51:32.978Z,21.05
2019-02-14T15:54:03.360Z,21.02
2019-02-14T15:56:35.196Z,21.03
2019-02-14T15:59:06.072Z,21.02
2019-02-14T16:01:36.490Z,21.02
2019-02-14T16:04:07.362Z,21.03
2019-02-14T16:06:37.851Z,21.02
2019-02-14T16:09:08.451Z,21.01
2019-02-14T16:11:38.886Z,21.02
2019-02-14T16:14:09.225Z,21.00
2019-02-14T16:16:39.587Z,20.99
2019-02-14T16:19:10.868Z,20.99
2019-02-14T16:21:41.882Z,20.99
2019-02-14T16:24:12.196Z,20.99
2019-02-14T16:26:42.570Z,20.98
2019-02-14T16:29:13.548Z,20.96
2019-02-14T16:31:45.774Z,20.97
2019-02-14T16:34:16.069Z,20.98
2019-02-14T16:36:46.374Z,20.97
2019-02-14T16:39:16.800Z,20.96
2019-02-14T16:41:47.114Z,20.96
2019-02-14T16:44:19.440Z,20.96
2019-02-14T16:46:49.474Z,20.97
2019-02-14T16:49:21.330Z,20.96
2019-02-14T16:51:51.944Z,20.95
2019-02-14T16:54:22.311Z,20.95
2019-02-14T16:56:52.614Z,20.94
2019-02-14T16:59:25.085Z,20.97
2019-02-14T17:01:55.441Z,20.97
2019-02-14T17:04:25.732Z,20.96
2019-02-14T17:06:57.064Z,20.97
2019-02-14T17:09:27.323Z,20.98
2019-02-14T17:11:57.700Z,20.96
2019-02-14T17:14:28.376Z,20.97
2019-02-14T17:16:58.751Z,20.96
2019-02-14T17:19:31.473Z,20.96
2019-02-14T17:22:02.729Z,20.96
2019-02-14T17:24:33.119Z,20.95
2019-02-14T17:27:03.431Z,20.94
2019-02-14T17:29:33.765Z,20.96
2019-02-14T17:32:06.172Z,20.97
2019-02-14T17:34:36.466Z,20.97
2019-02-14T17:37:06.952Z,20.97
2019-02-14T17:39:37.447Z,20.96
2019-02-14T17:42:07.913Z,20.97
2019-02-14T17:44:38.246Z,20.96
2019-02-14T17:47:09.553Z,20.97
2019-02-14T17:49:39.887Z,20.95
2019-02-14T17:52:10.299Z,20.95
2019-02-14T17:54:40.845Z,20.96
2019-02-14T17:57:11.286Z,20.98
2019-02-14T17:59:41.641Z,20.96
2019-02-14T18:02:11.976Z,20.97
2019-02-14T18:04:42.251Z,20.97
2019-02-14T18:07:12.685Z,20.96
2019-02-14T18:09:43.115Z,20.96
2019-02-14T18:12:13.417Z,20.97
2019-02-14T18:14:43.790Z,20.96
2019-02-14T18:17:14.247Z,20.96
2019-02-14T18:19:44.662Z,20.99
2019-02-14T18:22:15.114Z,20.97
2019-02-14T18:24:45.482Z,20.98
2019-02-14T18:27:15.746Z,20.98
2019-02-14T18:29:46.238Z,20.99
2019-02-14T18:32:16.624Z,20.98
2019-02-14T18:34:47.892Z,20.98
2019-02-14T18:37:18.344Z,20.98
2019-02-14T18:39:48.666Z,20.99
2019-02-14T18:42:19.054Z,20.99
2019-02-14T18:44:49.800Z,21.00
2019-02-14T18:47:20.155Z,21.01
2019-02-14T18:49:50.594Z,20.99
2019-02-14T18:52:20.969Z,21.01
2019-02-14T18:54:51.354Z,21.01
2019-02-14T18:57:21.693Z,21.01
2019-02-14T18:59:52.004Z,21.02
2019-02-14T19:02:22.808Z,21.03
2019-02-14T19:04:53.441Z,21.03
2019-02-14T19:07:23.900Z,21.02
2019-02-14T19:09:54.823Z,21.02
2019-02-14T19:12:27.375Z,21.03
2019-02-14T19:14:57.861Z,21.03
2019-02-14T19:17:28.373Z,21.03
2019-02-14T19:19:58.876Z,21.04
2019-02-14T19:22:32.220Z,21.04
2019-02-14T19:25:02.718Z,21.06
2019-02-14T19:27:33.166Z,21.05
2019-02-14T19:30:05.989Z,21.07
2019-02-14T19:32:36.922Z,21.06
2019-02-14T19:35:08.344Z,21.08
2019-02-14T19:37:39.859Z,21.08
2019-02-14T19:40:14.593Z,21.08
2019-02-14T19:42:45.104Z,21.09
2019-02-14T19:45:16.005Z,21.10
2019-02-14T19:47:48.077Z,21.11
2019-02-14T19:50:20.819Z,21.11
2019-02-14T19:52:53.561Z,21.09
2019-02-14T19:55:24.018Z,21.10
2019-02-14T19:57:54.384Z,21.11
2019-02-14T20:00:25.507Z,21.13
2019-02-14T20:02:55.898Z,21.13
2019-02-14T20:05:27.134Z,21.12
2019-02-14T20:07:57.421Z,21.14
2019-02-14T20:10:27.824Z,21.12
2019-02-14T20:12:58.192Z,21.14
2019-02-14T20:15:36.765Z,21.16
2019-02-14T20:18:04.294Z,21.17
2019-02-14T20:20:36.275Z,21.16
2019-02-14T20:23:06.953Z,21.16
2019-02-14T20:25:41.640Z,21.15
2019-02-14T20:28:13.867Z,21.15
2019-02-14T20:30:44.326Z,21.19
2019-02-14T20:33:15.059Z,21.18
2019-02-14T20:35:46.289Z,21.21
2019-02-14T20:38:17.735Z,21.20
2019-02-14T20:40:48.443Z,21.22
2019-02-14T20:43:19.975Z,21.13
2019-02-14T20:45:50.737Z,21.06
2019-02-14T20:48:24.172Z,21.06
2019-02-14T20:50:55.623Z,21.09
2019-02-14T20:53:26.633Z,21.10
2019-02-14T20:55:56.900Z,21.14
2019-02-14T20:58:27.308Z,21.16
2019-02-14T21:00:58.196Z,21.22
2019-02-14T21:03:28.468Z,21.23
2019-02-14T21:05:58.784Z,21.24
2019-02-14T21:08:29.402Z,21.24
2019-02-14T21:11:00.065Z,21.19
2019-02-14T21:13:30.602Z,21.18
2019-02-14T21:16:03.462Z,21.21
2019-02-14T21:18:33.771Z,21.21
2019-02-14T21:21:04.139Z,21.24
2019-02-14T21:23:39.128Z,21.22
2019-02-14T21:26:09.455Z,21.22
2019-02-14T21:28:41.092Z,21.23
2019-02-14T21:31:11.351Z,21.24
2019-02-14T21:33:41.765Z,21.24
2019-02-14T21:36:15.729Z,21.26
2019-02-14T21:38:48.939Z,21.26
2019-02-14T21:41:19.275Z,21.26
2019-02-14T21:43:51.910Z,21.28
2019-02-14T21:46:22.153Z,21.28
2019-02-14T21:48:52.511Z,21.28
2019-02-14T21:51:24.891Z,21.28
2019-02-14T21:53:55.275Z,21.29
2019-02-14T21:56:25.623Z,21.28
2019-02-14T21:58:55.924Z,21.29
2019-02-14T22:01:27.835Z,21.28
2019-02-14T22:03:58.219Z,21.25
2019-02-14T22:06:28.473Z,21.26
2019-02-14T22:08:58.854Z,21.26
2019-02-14T22:11:33.909Z,21.24
2019-02-14T22:14:01.208Z,21.22
2019-02-14T22:16:32.345Z,21.24
2019-02-14T22:19:04.523Z,21.19
2019-02-14T22:21:34.935Z,21.22
2019-02-14T22:24:05.304Z,21.18
2019-02-14T22:29:06.136Z,21.15
2019-02-14T22:31:36.430Z,21.18
2019-02-14T22:34:06.799Z,21.14
2019-02-14T22:36:37.139Z,21.16
2019-02-14T22:39:07.431Z,21.13
2019-02-14T22:41:39.351Z,21.13
2019-02-14T22:44:09.658Z,21.13
2019-02-14T22:46:40.126Z,21.12
2019-02-14T22:49:10.554Z,21.12
2019-02-14T22:51:40.927Z,21.11
2019-02-14T22:54:11.166Z,21.11
2019-02-14T22:56:41.548Z,21.08
2019-02-14T22:59:11.891Z,21.06
2019-02-14T23:01:42.226Z,21.08
2019-02-14T23:04:12.491Z,21.07
2019-02-14T23:06:42.880Z,21.06
2019-02-14T23:09:13.194Z,21.04
2019-02-14T23:11:43.509Z,21.06
2019-02-14T23:14:13.908Z,21.04
2019-02-14T23:16:44.145Z,21.00
2019-02-14T23:19:14.451Z,21.03
2019-02-14T23:21:44.784Z,21.02
2019-02-14T23:24:15.207Z,21.02
2019-02-14T23:26:45.540Z,21.01
2019-02-14T23:29:15.921Z,21.01
2019-02-14T23:31:46.314Z,20.96
2019-02-14T23:34:17.058Z,21.02
2019-02-14T23:36:47.355Z,21.02
2019-02-14T23:39:17.749Z,21.00
2019-02-14T23:41:48.254Z,20.98
2019-02-14T23:44:18.535Z,21.00
2019-02-14T23:46:48.899Z,20.99
2019-02-14T23:49:19.158Z,20.98
2019-02-14T23:51:49.484Z,20.96
2019-02-14T23:54:19.779Z,20.96
2019-02-14T23:56:50.040Z,20.96
2019-02-14T23:59:20.418Z,20.95
